sensor_id;sensor_type;location;lat;lon;timestamp;temperature;humidity
7174;DHT22;3628;48.654;8.932;2023-12-20T00:02:17;5.80;99.90
7174;DHT22;3628;48.654;8.932;2023-12-20T00:04:42;5.80;99.90
7174;DHT22;3628;48.654;8.932;2023-12-20T00:07:08;5.80;99.90
7174;DHT22;3628;48.654;8.932;2023-12-20T00:09:34;5.80;99.90
7174;DHT22;3628;48.654;8.932;2023-12-20T00:11:59;5.80;99.90
7174;DHT22;3628;48.654;8.932;2023-12-20T00:14:25;5.90;99.90
7174;DHT22;3628;48.654;8.932;2023-12-20T00:16:50;5.80;99.90
7174;DHT22;3628;48.654;8.932;2023-12-20T00:19:16;5.80;99.90
7174;DHT22;3628;48.654;8.932;2023-12-20T00:21:41;5.80;99.90
7174;DHT22;3628;48.654;8.932;2023-12-20T00:24:07;5.80;99.90
7174;DHT22;3628;48.654;8.932;2023-12-20T00:26:33;5.80;99.90
7174;DHT22;3628;48.654;8.932;2023-12-20T00:28:59;5.80;99.90
7174;DHT22;3628;48.654;8.932;2023-12-20T00:31:25;5.80;99.90
7174;DHT22;3628;48.654;8.932;2023-12-20T00:33:50;5.80;99.90
7174;DHT22;3628;48.654;8.932;2023-12-20T00:36:16;5.70;99.90
7174;DHT22;3628;48.654;8.932;2023-12-20T00:38:42;5.70;99.90
7174;DHT22;3628;48.654;8.932;2023-12-20T00:41:07;5.70;99.90
7174;DHT22;3628;48.654;8.932;2023-12-20T00:43:34;5.70;99.90
7174;DHT22;3628;48.654;8.932;2023-12-20T00:45:59;5.70;99.90
7174;DHT22;3628;48.654;8.932;2023-12-20T00:48:28;5.70;99.90
7174;DHT22;3628;48.654;8.932;2023-12-20T00:50:55;5.70;99.90
7174;DHT22;3628;48.654;8.932;2023-12-20T00:53:21;5.70;99.90
7174;DHT22;3628;48.654;8.932;2023-12-20T00:55:46;5.70;99.90
7174;DHT22;3628;48.654;8.932;2023-12-20T00:58:12;5.60;99.90
7174;DHT22;3628;48.654;8.932;2023-12-20T01:00:37;5.60;99.90
7174;DHT22;3628;48.654;8.932;2023-12-20T01:03:03;5.70;99.90
7174;DHT22;3628;48.654;8.932;2023-12-20T01:05:29;5.60;99.90
7174;DHT22;3628;48.654;8.932;2023-12-20T01:07:54;5.60;99.90
7174;DHT22;3628;48.654;8.932;2023-12-20T01:10:20;5.60;99.90
7174;DHT22;3628;48.654;8.932;2023-12-20T01:12:47;5.60;99.90
7174;DHT22;3628;48.654;8.932;2023-12-20T01:15:12;5.60;99.90
7174;DHT22;3628;48.654;8.932;2023-12-20T01:17:38;5.60;99.90
7174;DHT22;3628;48.654;8.932;2023-12-20T01:20:04;5.60;99.90
7174;DHT22;3628;48.654;8.932;2023-12-20T01:22:30;5.60;99.90
7174;DHT22;3628;48.654;8.932;2023-12-20T01:24:55;5.60;99.90
7174;DHT22;3628;48.654;8.932;2023-12-20T01:27:21;5.60;99.90
7174;DHT22;3628;48.654;8.932;2023-12-20T01:29:46;5.50;99.90
7174;DHT22;3628;48.654;8.932;2023-12-20T01:32:12;5.50;99.90
7174;DHT22;3628;48.654;8.932;2023-12-20T01:34:37;5.50;99.90
7174;DHT22;3628;48.654;8.932;2023-12-20T01:37:03;5.50;99.90
7174;DHT22;3628;48.654;8.932;2023-12-20T01:39:29;5.50;99.90
7174;DHT22;3628;48.654;8.932;2023-12-20T01:41:55;5.50;99.90
7174;DHT22;3628;48.654;8.932;2023-12-20T01:44:20;5.50;99.90
7174;DHT22;3628;48.654;8.932;2023-12-20T01:46:46;5.50;99.90
7174;DHT22;3628;48.654;8.932;2023-12-20T01:49:13;5.50;99.90
7174;DHT22;3628;48.654;8.932;2023-12-20T01:51:39;5.50;99.90
7174;DHT22;3628;48.654;8.932;2023-12-20T01:54:04;5.60;99.90
7174;DHT22;3628;48.654;8.932;2023-12-20T01:56:30;5.60;99.90
7174;DHT22;3628;48.654;8.932;2023-12-20T01:58:56;5.60;99.90
7174;DHT22;3628;48.654;8.932;2023-12-20T02:01:22;5.70;99.90
7174;DHT22;3628;48.654;8.932;2023-12-20T02:03:48;5.70;99.90
7174;DHT22;3628;48.654;8.932;2023-12-20T02:06:14;5.70;99.90
7174;DHT22;3628;48.654;8.932;2023-12-20T02:08:40;5.70;99.90
7174;DHT22;3628;48.654;8.932;2023-12-20T02:11:06;5.70;99.90
7174;DHT22;3628;48.654;8.932;2023-12-20T02:13:31;5.70;99.90
7174;DHT22;3628;48.654;8.932;2023-12-20T02:15:57;5.70;99.90
7174;DHT22;3628;48.654;8.932;2023-12-20T02:18:23;5.70;99.90
7174;DHT22;3628;48.654;8.932;2023-12-20T02:20:49;5.80;99.90
7174;DHT22;3628;48.654;8.932;2023-12-20T02:23:14;5.80;99.90
7174;DHT22;3628;48.654;8.932;2023-12-20T02:25:40;5.80;99.90
7174;DHT22;3628;48.654;8.932;2023-12-20T02:28:05;5.80;99.90
7174;DHT22;3628;48.654;8.932;2023-12-20T02:30:32;5.80;99.90
7174;DHT22;3628;48.654;8.932;2023-12-20T02:32:59;5.80;99.90
7174;DHT22;3628;48.654;8.932;2023-12-20T02:35:25;5.80;99.90
7174;DHT22;3628;48.654;8.932;2023-12-20T02:37:50;5.80;99.90
7174;DHT22;3628;48.654;8.932;2023-12-20T02:40:16;5.80;99.90
7174;DHT22;3628;48.654;8.932;2023-12-20T02:42:42;5.80;99.90
7174;DHT22;3628;48.654;8.932;2023-12-20T02:45:08;5.70;99.90
7174;DHT22;3628;48.654;8.932;2023-12-20T02:47:33;5.70;99.90
7174;DHT22;3628;48.654;8.932;2023-12-20T02:49:59;5.70;99.90
7174;DHT22;3628;48.654;8.932;2023-12-20T02:52:25;5.70;99.90
7174;DHT22;3628;48.654;8.932;2023-12-20T02:54:50;5.70;99.90
7174;DHT22;3628;48.654;8.932;2023-12-20T02:57:16;5.70;99.90
7174;DHT22;3628;48.654;8.932;2023-12-20T02:59:41;5.70;99.90
7174;DHT22;3628;48.654;8.932;2023-12-20T03:02:07;5.70;99.90
7174;DHT22;3628;48.654;8.932;2023-12-20T03:04:33;5.70;99.90
7174;DHT22;3628;48.654;8.932;2023-12-20T03:06:58;5.70;99.90
7174;DHT22;3628;48.654;8.932;2023-12-20T03:09:24;5.70;99.90
7174;DHT22;3628;48.654;8.932;2023-12-20T03:11:49;5.80;99.90
7174;DHT22;3628;48.654;8.932;2023-12-20T03:14:15;5.80;99.90
7174;DHT22;3628;48.654;8.932;2023-12-20T03:16:42;5.80;99.90
7174;DHT22;3628;48.654;8.932;2023-12-20T03:19:11;5.70;99.90
7174;DHT22;3628;48.654;8.932;2023-12-20T03:21:37;5.70;99.90
7174;DHT22;3628;48.654;8.932;2023-12-20T03:24:03;5.80;99.90
7174;DHT22;3628;48.654;8.932;2023-12-20T03:26:28;5.80;99.90
7174;DHT22;3628;48.654;8.932;2023-12-20T03:28:54;5.80;99.90
7174;DHT22;3628;48.654;8.932;2023-12-20T03:31:19;5.80;99.90
7174;DHT22;3628;48.654;8.932;2023-12-20T03:33:46;5.70;99.90
7174;DHT22;3628;48.654;8.932;2023-12-20T03:36:11;5.70;99.90
7174;DHT22;3628;48.654;8.932;2023-12-20T03:38:37;5.70;99.90
7174;DHT22;3628;48.654;8.932;2023-12-20T03:41:03;5.80;99.90
7174;DHT22;3628;48.654;8.932;2023-12-20T03:43:28;5.70;99.90
7174;DHT22;3628;48.654;8.932;2023-12-20T03:45:54;5.70;99.90
7174;DHT22;3628;48.654;8.932;2023-12-20T03:48:19;5.70;99.90
7174;DHT22;3628;48.654;8.932;2023-12-20T03:50:45;5.70;99.90
7174;DHT22;3628;48.654;8.932;2023-12-20T03:53:10;5.60;99.90
7174;DHT22;3628;48.654;8.932;2023-12-20T03:55:36;5.60;99.90
7174;DHT22;3628;48.654;8.932;2023-12-20T03:58:01;5.60;99.90
7174;DHT22;3628;48.654;8.932;2023-12-20T04:00:27;5.60;99.90
7174;DHT22;3628;48.654;8.932;2023-12-20T04:02:52;5.50;99.90
7174;DHT22;3628;48.654;8.932;2023-12-20T04:05:18;5.50;99.90
7174;DHT22;3628;48.654;8.932;2023-12-20T04:07:44;5.50;99.90
7174;DHT22;3628;48.654;8.932;2023-12-20T04:10:10;5.50;99.90
7174;DHT22;3628;48.654;8.932;2023-12-20T04:12:35;5.50;99.90
7174;DHT22;3628;48.654;8.932;2023-12-20T04:15:01;5.50;99.90
7174;DHT22;3628;48.654;8.932;2023-12-20T04:17:27;5.50;99.90
7174;DHT22;3628;48.654;8.932;2023-12-20T04:19:52;5.50;99.90
7174;DHT22;3628;48.654;8.932;2023-12-20T04:22:18;5.50;99.90
7174;DHT22;3628;48.654;8.932;2023-12-20T04:24:44;5.50;99.90
7174;DHT22;3628;48.654;8.932;2023-12-20T04:27:10;5.40;99.90
7174;DHT22;3628;48.654;8.932;2023-12-20T04:29:36;5.40;99.90
7174;DHT22;3628;48.654;8.932;2023-12-20T04:32:01;5.40;99.90
7174;DHT22;3628;48.654;8.932;2023-12-20T04:34:27;5.40;99.90
7174;DHT22;3628;48.654;8.932;2023-12-20T04:36:53;5.40;99.90
7174;DHT22;3628;48.654;8.932;2023-12-20T04:39:18;5.40;99.90
7174;DHT22;3628;48.654;8.932;2023-12-20T04:41:44;5.40;99.90
7174;DHT22;3628;48.654;8.932;2023-12-20T04:44:10;5.30;99.90
7174;DHT22;3628;48.654;8.932;2023-12-20T04:46:35;5.30;99.90
7174;DHT22;3628;48.654;8.932;2023-12-20T04:49:01;5.30;99.90
7174;DHT22;3628;48.654;8.932;2023-12-20T04:51:27;5.30;99.90
7174;DHT22;3628;48.654;8.932;2023-12-20T04:53:52;5.30;99.90
7174;DHT22;3628;48.654;8.932;2023-12-20T04:56:18;5.30;99.90
7174;DHT22;3628;48.654;8.932;2023-12-20T04:58:43;5.40;99.90
7174;DHT22;3628;48.654;8.932;2023-12-20T05:01:09;5.40;99.90
7174;DHT22;3628;48.654;8.932;2023-12-20T05:03:35;5.40;99.90
7174;DHT22;3628;48.654;8.932;2023-12-20T05:06:01;5.40;99.90
7174;DHT22;3628;48.654;8.932;2023-12-20T05:08:26;5.40;99.90
7174;DHT22;3628;48.654;8.932;2023-12-20T05:10:54;5.40;99.90
7174;DHT22;3628;48.654;8.932;2023-12-20T05:13:20;5.40;99.90
7174;DHT22;3628;48.654;8.932;2023-12-20T05:15:45;5.40;99.90
7174;DHT22;3628;48.654;8.932;2023-12-20T05:18:12;5.40;99.90
7174;DHT22;3628;48.654;8.932;2023-12-20T05:20:38;5.40;99.90
7174;DHT22;3628;48.654;8.932;2023-12-20T05:23:03;5.40;99.90
7174;DHT22;3628;48.654;8.932;2023-12-20T05:25:29;5.40;99.90
7174;DHT22;3628;48.654;8.932;2023-12-20T05:27:55;5.40;99.90
7174;DHT22;3628;48.654;8.932;2023-12-20T05:30:21;5.40;99.90
7174;DHT22;3628;48.654;8.932;2023-12-20T05:32:47;5.40;99.90
7174;DHT22;3628;48.654;8.932;2023-12-20T05:35:12;5.40;99.90
7174;DHT22;3628;48.654;8.932;2023-12-20T05:37:38;5.40;99.90
7174;DHT22;3628;48.654;8.932;2023-12-20T05:40:04;5.40;99.90
7174;DHT22;3628;48.654;8.932;2023-12-20T05:42:30;5.50;99.90
7174;DHT22;3628;48.654;8.932;2023-12-20T05:44:55;5.40;99.90
7174;DHT22;3628;48.654;8.932;2023-12-20T05:47:21;5.40;99.90
7174;DHT22;3628;48.654;8.932;2023-12-20T05:49:46;5.40;99.90
7174;DHT22;3628;48.654;8.932;2023-12-20T05:52:12;5.40;99.90
7174;DHT22;3628;48.654;8.932;2023-12-20T05:54:38;5.40;99.90
7174;DHT22;3628;48.654;8.932;2023-12-20T05:57:03;5.30;99.90
7174;DHT22;3628;48.654;8.932;2023-12-20T05:59:29;5.30;99.90
7174;DHT22;3628;48.654;8.932;2023-12-20T06:01:55;5.30;99.90
7174;DHT22;3628;48.654;8.932;2023-12-20T06:04:20;5.30;99.90
7174;DHT22;3628;48.654;8.932;2023-12-20T06:06:46;5.30;99.90
7174;DHT22;3628;48.654;8.932;2023-12-20T06:09:11;5.30;99.90
7174;DHT22;3628;48.654;8.932;2023-12-20T06:11:37;5.30;99.90
7174;DHT22;3628;48.654;8.932;2023-12-20T06:14:03;5.30;99.90
7174;DHT22;3628;48.654;8.932;2023-12-20T06:16:28;5.30;99.90
7174;DHT22;3628;48.654;8.932;2023-12-20T06:18:54;5.30;99.90
7174;DHT22;3628;48.654;8.932;2023-12-20T06:21:19;5.30;99.90
7174;DHT22;3628;48.654;8.932;2023-12-20T06:23:45;5.40;99.90
7174;DHT22;3628;48.654;8.932;2023-12-20T06:26:10;5.40;99.90
7174;DHT22;3628;48.654;8.932;2023-12-20T06:28:36;5.40;99.90
7174;DHT22;3628;48.654;8.932;2023-12-20T06:31:02;5.40;99.90
7174;DHT22;3628;48.654;8.932;2023-12-20T06:33:28;5.40;99.90
7174;DHT22;3628;48.654;8.932;2023-12-20T06:35:56;5.40;99.90
7174;DHT22;3628;48.654;8.932;2023-12-20T06:38:21;5.40;99.90
7174;DHT22;3628;48.654;8.932;2023-12-20T06:40:47;5.40;99.90
7174;DHT22;3628;48.654;8.932;2023-12-20T06:43:13;5.40;99.90
7174;DHT22;3628;48.654;8.932;2023-12-20T06:45:39;5.40;99.90
7174;DHT22;3628;48.654;8.932;2023-12-20T06:48:04;5.50;99.90
7174;DHT22;3628;48.654;8.932;2023-12-20T06:50:30;5.50;99.90
7174;DHT22;3628;48.654;8.932;2023-12-20T06:52:56;5.40;99.90
7174;DHT22;3628;48.654;8.932;2023-12-20T06:55:21;5.40;99.90
7174;DHT22;3628;48.654;8.932;2023-12-20T06:57:47;5.40;99.90
7174;DHT22;3628;48.654;8.932;2023-12-20T07:00:13;5.40;99.90
7174;DHT22;3628;48.654;8.932;2023-12-20T07:02:39;5.40;99.90
7174;DHT22;3628;48.654;8.932;2023-12-20T07:05:04;5.40;99.90
7174;DHT22;3628;48.654;8.932;2023-12-20T07:07:30;5.40;99.90
7174;DHT22;3628;48.654;8.932;2023-12-20T07:09:56;5.40;99.90
7174;DHT22;3628;48.654;8.932;2023-12-20T07:12:21;5.40;99.90
7174;DHT22;3628;48.654;8.932;2023-12-20T07:14:47;5.40;99.90
7174;DHT22;3628;48.654;8.932;2023-12-20T07:17:13;5.50;99.90
7174;DHT22;3628;48.654;8.932;2023-12-20T07:19:40;5.50;99.90
7174;DHT22;3628;48.654;8.932;2023-12-20T07:22:06;5.50;99.90
7174;DHT22;3628;48.654;8.932;2023-12-20T07:24:33;5.50;99.90
7174;DHT22;3628;48.654;8.932;2023-12-20T07:27:02;5.50;99.90
7174;DHT22;3628;48.654;8.932;2023-12-20T07:29:27;5.50;99.90
7174;DHT22;3628;48.654;8.932;2023-12-20T07:31:53;5.50;99.90
7174;DHT22;3628;48.654;8.932;2023-12-20T07:34:22;5.50;99.90
7174;DHT22;3628;48.654;8.932;2023-12-20T07:36:48;5.50;99.90
7174;DHT22;3628;48.654;8.932;2023-12-20T07:39:14;5.50;99.90
7174;DHT22;3628;48.654;8.932;2023-12-20T07:41:40;5.50;99.90
7174;DHT22;3628;48.654;8.932;2023-12-20T07:44:06;5.50;99.90
7174;DHT22;3628;48.654;8.932;2023-12-20T07:46:33;5.50;99.90
7174;DHT22;3628;48.654;8.932;2023-12-20T07:48:58;5.60;99.90
7174;DHT22;3628;48.654;8.932;2023-12-20T07:51:24;5.60;99.90
7174;DHT22;3628;48.654;8.932;2023-12-20T07:53:51;5.70;99.90
7174;DHT22;3628;48.654;8.932;2023-12-20T07:56:18;5.80;99.90
7174;DHT22;3628;48.654;8.932;2023-12-20T07:58:44;5.90;99.90
7174;DHT22;3628;48.654;8.932;2023-12-20T08:01:13;5.90;99.90
7174;DHT22;3628;48.654;8.932;2023-12-20T08:03:38;6.00;99.90
7174;DHT22;3628;48.654;8.932;2023-12-20T08:06:04;6.00;99.90
7174;DHT22;3628;48.654;8.932;2023-12-20T08:08:30;6.10;99.90
7174;DHT22;3628;48.654;8.932;2023-12-20T08:10:56;6.10;99.90
7174;DHT22;3628;48.654;8.932;2023-12-20T08:13:24;6.20;99.90
7174;DHT22;3628;48.654;8.932;2023-12-20T08:15:54;6.20;99.90
7174;DHT22;3628;48.654;8.932;2023-12-20T08:18:21;6.20;99.90
7174;DHT22;3628;48.654;8.932;2023-12-20T08:20:47;6.20;99.90
7174;DHT22;3628;48.654;8.932;2023-12-20T08:23:14;6.30;99.90
7174;DHT22;3628;48.654;8.932;2023-12-20T08:25:40;6.30;99.90
7174;DHT22;3628;48.654;8.932;2023-12-20T08:28:06;6.40;99.90
7174;DHT22;3628;48.654;8.932;2023-12-20T08:30:31;6.40;99.90
7174;DHT22;3628;48.654;8.932;2023-12-20T08:33:00;6.40;99.90
7174;DHT22;3628;48.654;8.932;2023-12-20T08:35:25;6.40;99.90
7174;DHT22;3628;48.654;8.932;2023-12-20T08:37:51;6.40;99.90
7174;DHT22;3628;48.654;8.932;2023-12-20T08:40:17;6.30;99.90
7174;DHT22;3628;48.654;8.932;2023-12-20T08:42:42;6.20;99.90
7174;DHT22;3628;48.654;8.932;2023-12-20T08:45:08;6.10;99.90
7174;DHT22;3628;48.654;8.932;2023-12-20T08:47:33;6.00;99.90
7174;DHT22;3628;48.654;8.932;2023-12-20T08:49:59;5.90;99.90
7174;DHT22;3628;48.654;8.932;2023-12-20T08:52:26;5.80;99.90
7174;DHT22;3628;48.654;8.932;2023-12-20T08:54:53;5.80;99.90
7174;DHT22;3628;48.654;8.932;2023-12-20T08:57:22;5.70;99.90
7174;DHT22;3628;48.654;8.932;2023-12-20T08:59:49;5.70;99.90
7174;DHT22;3628;48.654;8.932;2023-12-20T09:02:16;5.60;99.90
7174;DHT22;3628;48.654;8.932;2023-12-20T09:04:42;5.50;99.90
7174;DHT22;3628;48.654;8.932;2023-12-20T09:07:24;5.40;99.90
7174;DHT22;3628;48.654;8.932;2023-12-20T09:09:50;5.30;99.90
7174;DHT22;3628;48.654;8.932;2023-12-20T09:12:16;5.20;99.90
7174;DHT22;3628;48.654;8.932;2023-12-20T09:14:42;5.10;99.90
7174;DHT22;3628;48.654;8.932;2023-12-20T09:17:08;5.00;99.90
7174;DHT22;3628;48.654;8.932;2023-12-20T09:19:34;4.90;99.90
7174;DHT22;3628;48.654;8.932;2023-12-20T09:21:59;4.90;99.90
7174;DHT22;3628;48.654;8.932;2023-12-20T09:24:25;4.80;99.90
7174;DHT22;3628;48.654;8.932;2023-12-20T09:26:50;4.80;99.90
7174;DHT22;3628;48.654;8.932;2023-12-20T09:29:16;4.80;99.90
7174;DHT22;3628;48.654;8.932;2023-12-20T09:31:42;4.80;99.90
7174;DHT22;3628;48.654;8.932;2023-12-20T09:34:09;4.80;99.90
7174;DHT22;3628;48.654;8.932;2023-12-20T09:36:34;4.80;99.90
7174;DHT22;3628;48.654;8.932;2023-12-20T09:39:01;4.80;99.90
7174;DHT22;3628;48.654;8.932;2023-12-20T09:41:29;4.90;99.90
7174;DHT22;3628;48.654;8.932;2023-12-20T09:44:00;4.90;99.90
7174;DHT22;3628;48.654;8.932;2023-12-20T09:46:29;4.90;99.90
7174;DHT22;3628;48.654;8.932;2023-12-20T09:48:59;4.90;99.90
7174;DHT22;3628;48.654;8.932;2023-12-20T09:51:26;5.00;99.90
7174;DHT22;3628;48.654;8.932;2023-12-20T09:53:54;5.00;99.90
7174;DHT22;3628;48.654;8.932;2023-12-20T09:56:20;5.10;99.90
7174;DHT22;3628;48.654;8.932;2023-12-20T09:58:46;5.20;99.90
7174;DHT22;3628;48.654;8.932;2023-12-20T10:01:12;5.30;99.90
7174;DHT22;3628;48.654;8.932;2023-12-20T10:03:39;5.50;99.90
7174;DHT22;3628;48.654;8.932;2023-12-20T10:06:06;5.70;99.90
7174;DHT22;3628;48.654;8.932;2023-12-20T10:08:32;5.80;99.90
7174;DHT22;3628;48.654;8.932;2023-12-20T10:10:58;5.90;99.90
7174;DHT22;3628;48.654;8.932;2023-12-20T10:13:28;6.00;99.90
7174;DHT22;3628;48.654;8.932;2023-12-20T10:15:55;6.00;99.90
7174;DHT22;3628;48.654;8.932;2023-12-20T10:18:21;6.00;99.90
7174;DHT22;3628;48.654;8.932;2023-12-20T10:20:47;6.00;99.90
7174;DHT22;3628;48.654;8.932;2023-12-20T10:23:13;6.00;99.90
7174;DHT22;3628;48.654;8.932;2023-12-20T10:25:39;6.10;99.90
7174;DHT22;3628;48.654;8.932;2023-12-20T10:28:16;6.10;99.90
7174;DHT22;3628;48.654;8.932;2023-12-20T10:30:46;6.10;99.90
7174;DHT22;3628;48.654;8.932;2023-12-20T10:33:11;6.10;99.90
7174;DHT22;3628;48.654;8.932;2023-12-20T10:35:38;6.10;99.90
7174;DHT22;3628;48.654;8.932;2023-12-20T10:38:05;6.10;99.90
7174;DHT22;3628;48.654;8.932;2023-12-20T10:40:35;6.10;99.90
7174;DHT22;3628;48.654;8.932;2023-12-20T10:43:02;6.00;99.90
7174;DHT22;3628;48.654;8.932;2023-12-20T10:45:28;6.00;99.90
7174;DHT22;3628;48.654;8.932;2023-12-20T10:47:54;6.00;99.90
7174;DHT22;3628;48.654;8.932;2023-12-20T10:50:20;6.00;99.90
7174;DHT22;3628;48.654;8.932;2023-12-20T10:52:47;6.00;99.90
7174;DHT22;3628;48.654;8.932;2023-12-20T10:55:13;5.90;99.90
7174;DHT22;3628;48.654;8.932;2023-12-20T10:57:39;6.00;99.90
7174;DHT22;3628;48.654;8.932;2023-12-20T11:00:08;6.00;99.90
7174;DHT22;3628;48.654;8.932;2023-12-20T11:02:39;6.00;99.90
7174;DHT22;3628;48.654;8.932;2023-12-20T11:07:44;6.10;99.90
7174;DHT22;3628;48.654;8.932;2023-12-20T11:10:22;6.20;99.90
7174;DHT22;3628;48.654;8.932;2023-12-20T11:12:50;6.30;99.90
7174;DHT22;3628;48.654;8.932;2023-12-20T11:15:18;6.20;99.90
7174;DHT22;3628;48.654;8.932;2023-12-20T11:17:45;6.10;99.90
7174;DHT22;3628;48.654;8.932;2023-12-20T11:20:12;6.20;99.90
7174;DHT22;3628;48.654;8.932;2023-12-20T11:22:38;6.20;99.90
7174;DHT22;3628;48.654;8.932;2023-12-20T11:25:16;6.20;99.90
7174;DHT22;3628;48.654;8.932;2023-12-20T11:27:43;6.30;99.90
7174;DHT22;3628;48.654;8.932;2023-12-20T11:30:09;6.30;99.90
7174;DHT22;3628;48.654;8.932;2023-12-20T11:32:36;6.40;99.90
7174;DHT22;3628;48.654;8.932;2023-12-20T11:35:18;6.30;99.90
7174;DHT22;3628;48.654;8.932;2023-12-20T11:37:45;6.20;99.90
7174;DHT22;3628;48.654;8.932;2023-12-20T11:40:17;6.10;99.90
7174;DHT22;3628;48.654;8.932;2023-12-20T11:42:44;6.00;99.90
7174;DHT22;3628;48.654;8.932;2023-12-20T11:45:13;5.90;99.90
7174;DHT22;3628;48.654;8.932;2023-12-20T11:47:41;5.80;99.90
7174;DHT22;3628;48.654;8.932;2023-12-20T11:50:07;5.70;99.90
7174;DHT22;3628;48.654;8.932;2023-12-20T11:52:33;5.80;99.90
7174;DHT22;3628;48.654;8.932;2023-12-20T11:54:59;5.80;99.90
7174;DHT22;3628;48.654;8.932;2023-12-20T11:57:25;5.80;99.90
7174;DHT22;3628;48.654;8.932;2023-12-20T11:59:51;5.70;99.90
7174;DHT22;3628;48.654;8.932;2023-12-20T12:02:16;5.70;99.90
7174;DHT22;3628;48.654;8.932;2023-12-20T12:04:42;5.70;99.90
7174;DHT22;3628;48.654;8.932;2023-12-20T12:07:08;5.70;99.90
7174;DHT22;3628;48.654;8.932;2023-12-20T12:09:34;5.60;99.90
7174;DHT22;3628;48.654;8.932;2023-12-20T12:12:00;5.70;99.90
7174;DHT22;3628;48.654;8.932;2023-12-20T12:14:26;5.70;99.90
7174;DHT22;3628;48.654;8.932;2023-12-20T12:16:52;5.70;99.90
7174;DHT22;3628;48.654;8.932;2023-12-20T12:19:25;5.80;99.90
7174;DHT22;3628;48.654;8.932;2023-12-20T12:22:12;5.80;99.90
7174;DHT22;3628;48.654;8.932;2023-12-20T12:24:40;5.80;99.90
7174;DHT22;3628;48.654;8.932;2023-12-20T12:27:06;5.80;99.90
7174;DHT22;3628;48.654;8.932;2023-12-20T12:29:33;5.90;99.90
7174;DHT22;3628;48.654;8.932;2023-12-20T12:31:59;5.90;99.90
7174;DHT22;3628;48.654;8.932;2023-12-20T12:34:27;6.00;99.90
7174;DHT22;3628;48.654;8.932;2023-12-20T12:36:53;6.00;99.90
7174;DHT22;3628;48.654;8.932;2023-12-20T12:39:20;6.00;99.90
7174;DHT22;3628;48.654;8.932;2023-12-20T12:41:45;6.10;99.90
7174;DHT22;3628;48.654;8.932;2023-12-20T12:44:11;6.20;99.90
7174;DHT22;3628;48.654;8.932;2023-12-20T12:46:36;6.10;99.90
7174;DHT22;3628;48.654;8.932;2023-12-20T12:49:02;6.10;99.90
7174;DHT22;3628;48.654;8.932;2023-12-20T12:51:27;6.10;99.90
7174;DHT22;3628;48.654;8.932;2023-12-20T12:53:53;6.10;99.90
7174;DHT22;3628;48.654;8.932;2023-12-20T12:56:19;6.20;99.90
7174;DHT22;3628;48.654;8.932;2023-12-20T12:58:45;6.30;99.90
7174;DHT22;3628;48.654;8.932;2023-12-20T13:01:10;6.40;99.90
7174;DHT22;3628;48.654;8.932;2023-12-20T13:03:36;6.40;99.90
7174;DHT22;3628;48.654;8.932;2023-12-20T13:06:02;6.50;99.90
7174;DHT22;3628;48.654;8.932;2023-12-20T13:08:29;6.50;99.90
7174;DHT22;3628;48.654;8.932;2023-12-20T13:10:55;6.50;99.90
7174;DHT22;3628;48.654;8.932;2023-12-20T13:13:21;6.50;99.90
7174;DHT22;3628;48.654;8.932;2023-12-20T13:15:46;6.40;99.90
7174;DHT22;3628;48.654;8.932;2023-12-20T13:18:17;6.40;99.90
7174;DHT22;3628;48.654;8.932;2023-12-20T13:20:43;6.50;99.90
7174;DHT22;3628;48.654;8.932;2023-12-20T13:23:09;6.60;99.90
7174;DHT22;3628;48.654;8.932;2023-12-20T13:25:35;6.60;99.90
7174;DHT22;3628;48.654;8.932;2023-12-20T13:28:00;6.70;99.90
7174;DHT22;3628;48.654;8.932;2023-12-20T13:30:26;6.80;99.90
7174;DHT22;3628;48.654;8.932;2023-12-20T13:32:52;6.90;99.90
7174;DHT22;3628;48.654;8.932;2023-12-20T13:35:17;6.90;99.90
7174;DHT22;3628;48.654;8.932;2023-12-20T13:37:43;6.80;99.90
7174;DHT22;3628;48.654;8.932;2023-12-20T13:40:10;6.70;99.90
7174;DHT22;3628;48.654;8.932;2023-12-20T13:42:35;6.70;99.90
7174;DHT22;3628;48.654;8.932;2023-12-20T13:45:01;6.50;99.90
7174;DHT22;3628;48.654;8.932;2023-12-20T13:47:27;6.40;99.90
7174;DHT22;3628;48.654;8.932;2023-12-20T13:49:52;6.30;99.90
7174;DHT22;3628;48.654;8.932;2023-12-20T13:52:18;6.30;99.90
7174;DHT22;3628;48.654;8.932;2023-12-20T13:54:44;6.20;99.90
7174;DHT22;3628;48.654;8.932;2023-12-20T13:57:09;6.20;99.90
7174;DHT22;3628;48.654;8.932;2023-12-20T13:59:35;6.20;99.90
7174;DHT22;3628;48.654;8.932;2023-12-20T14:02:00;6.20;99.90
7174;DHT22;3628;48.654;8.932;2023-12-20T14:04:28;6.20;99.90
7174;DHT22;3628;48.654;8.932;2023-12-20T14:06:54;6.10;99.90
7174;DHT22;3628;48.654;8.932;2023-12-20T14:09:20;6.10;99.90
7174;DHT22;3628;48.654;8.932;2023-12-20T14:11:46;6.00;99.90
7174;DHT22;3628;48.654;8.932;2023-12-20T14:14:11;6.00;99.90
7174;DHT22;3628;48.654;8.932;2023-12-20T14:16:37;5.90;99.90
7174;DHT22;3628;48.654;8.932;2023-12-20T14:19:03;5.90;99.90
7174;DHT22;3628;48.654;8.932;2023-12-20T14:21:29;5.90;99.90
7174;DHT22;3628;48.654;8.932;2023-12-20T14:23:54;5.80;99.90
7174;DHT22;3628;48.654;8.932;2023-12-20T14:26:20;5.80;99.90
7174;DHT22;3628;48.654;8.932;2023-12-20T14:28:46;5.70;99.90
7174;DHT22;3628;48.654;8.932;2023-12-20T14:31:11;5.60;99.90
7174;DHT22;3628;48.654;8.932;2023-12-20T14:33:37;5.50;99.90
7174;DHT22;3628;48.654;8.932;2023-12-20T14:36:05;5.40;99.90
7174;DHT22;3628;48.654;8.932;2023-12-20T14:38:31;5.40;99.90
7174;DHT22;3628;48.654;8.932;2023-12-20T14:40:57;5.30;99.90
7174;DHT22;3628;48.654;8.932;2023-12-20T14:43:23;5.30;99.90
7174;DHT22;3628;48.654;8.932;2023-12-20T14:45:48;5.20;99.90
7174;DHT22;3628;48.654;8.932;2023-12-20T14:48:14;5.20;99.90
7174;DHT22;3628;48.654;8.932;2023-12-20T14:50:41;5.10;99.90
7174;DHT22;3628;48.654;8.932;2023-12-20T14:53:08;5.10;99.90
7174;DHT22;3628;48.654;8.932;2023-12-20T14:55:33;5.10;99.90
7174;DHT22;3628;48.654;8.932;2023-12-20T14:57:59;5.10;99.90
7174;DHT22;3628;48.654;8.932;2023-12-20T15:00:26;5.10;99.90
7174;DHT22;3628;48.654;8.932;2023-12-20T15:02:52;5.10;99.90
7174;DHT22;3628;48.654;8.932;2023-12-20T15:05:19;5.10;99.90
7174;DHT22;3628;48.654;8.932;2023-12-20T15:07:45;5.10;99.90
7174;DHT22;3628;48.654;8.932;2023-12-20T15:10:12;5.00;99.90
7174;DHT22;3628;48.654;8.932;2023-12-20T15:12:38;5.00;99.90
7174;DHT22;3628;48.654;8.932;2023-12-20T15:15:04;4.90;99.90
7174;DHT22;3628;48.654;8.932;2023-12-20T15:17:30;4.90;99.90
7174;DHT22;3628;48.654;8.932;2023-12-20T15:19:55;4.90;99.90
7174;DHT22;3628;48.654;8.932;2023-12-20T15:22:21;4.80;99.90
7174;DHT22;3628;48.654;8.932;2023-12-20T15:24:46;4.80;99.90
7174;DHT22;3628;48.654;8.932;2023-12-20T15:27:12;4.80;99.90
7174;DHT22;3628;48.654;8.932;2023-12-20T15:29:38;4.80;99.90
7174;DHT22;3628;48.654;8.932;2023-12-20T15:32:04;4.70;99.90
7174;DHT22;3628;48.654;8.932;2023-12-20T15:34:30;4.70;99.90
7174;DHT22;3628;48.654;8.932;2023-12-20T15:36:56;4.70;99.90
7174;DHT22;3628;48.654;8.932;2023-12-20T15:39:22;4.70;99.90
7174;DHT22;3628;48.654;8.932;2023-12-20T15:41:48;4.60;99.90
7174;DHT22;3628;48.654;8.932;2023-12-20T15:44:14;4.60;99.90
7174;DHT22;3628;48.654;8.932;2023-12-20T15:46:41;4.60;99.90
7174;DHT22;3628;48.654;8.932;2023-12-20T15:49:07;4.50;99.90
7174;DHT22;3628;48.654;8.932;2023-12-20T15:51:32;4.50;99.90
7174;DHT22;3628;48.654;8.932;2023-12-20T15:53:58;4.50;99.90
7174;DHT22;3628;48.654;8.932;2023-12-20T15:56:28;4.50;99.90
7174;DHT22;3628;48.654;8.932;2023-12-20T15:58:54;4.50;99.90
7174;DHT22;3628;48.654;8.932;2023-12-20T16:01:20;4.50;99.90
7174;DHT22;3628;48.654;8.932;2023-12-20T16:03:45;4.50;99.90
7174;DHT22;3628;48.654;8.932;2023-12-20T16:06:11;4.50;99.90
7174;DHT22;3628;48.654;8.932;2023-12-20T16:08:38;4.50;99.90
7174;DHT22;3628;48.654;8.932;2023-12-20T16:11:04;4.50;99.90
7174;DHT22;3628;48.654;8.932;2023-12-20T16:13:29;4.50;99.90